sensor_id;sensor_type;location;lat;lon;timestamp;pressure;altitude;pressure_sealevel;temperature;humidity
82379;BME280;72008;48.140;11.614;2023-10-08T00:00:45;96233.91;;;17.93;31.84
82379;BME280;72008;48.140;11.614;2023-10-08T00:01:46;96229.91;;;17.90;32.52
82379;BME280;72008;48.140;11.614;2023-10-08T00:02:46;96231.50;;;17.91;32.40
82379;BME280;72008;48.140;11.614;2023-10-08T00:03:47;96227.59;;;17.92;32.40
82379;BME280;72008;48.140;11.614;2023-10-08T00:04:48;96224.00;;;17.92;33.09
82379;BME280;72008;48.140;11.614;2023-10-08T00:05:49;96224.41;;;17.94;32.65
82379;BME280;72008;48.140;11.614;2023-10-08T00:06:49;96225.59;;;17.93;32.66
82379;BME280;72008;48.140;11.614;2023-10-08T00:07:50;96222.44;;;17.94;33.06
82379;BME280;72008;48.140;11.614;2023-10-08T00:08:51;96215.75;;;17.95;33.43
82379;BME280;72008;48.140;11.614;2023-10-08T00:09:51;96217.34;;;17.96;33.27
82379;BME280;72008;48.140;11.614;2023-10-08T00:10:51;96210.97;;;17.92;33.54
82379;BME280;72008;48.140;11.614;2023-10-08T00:11:52;96216.50;;;17.92;33.21
82379;BME280;72008;48.140;11.614;2023-10-08T00:12:52;96211.75;;;17.93;33.73
82379;BME280;72008;48.140;11.614;2023-10-08T00:13:53;96207.44;;;17.95;32.91
82379;BME280;72008;48.140;11.614;2023-10-08T00:14:53;96212.56;;;17.93;32.93
82379;BME280;72008;48.140;11.614;2023-10-08T00:15:53;96209.38;;;17.95;32.99
82379;BME280;72008;48.140;11.614;2023-10-08T00:16:54;96205.03;;;17.94;33.77
82379;BME280;72008;48.140;11.614;2023-10-08T00:17:54;96207.44;;;17.95;32.59
82379;BME280;72008;48.140;11.614;2023-10-08T00:18:54;96200.69;;;17.93;33.59
82379;BME280;72008;48.140;11.614;2023-10-08T00:19:55;96209.38;;;17.95;33.35
82379;BME280;72008;48.140;11.614;2023-10-08T00:20:55;96205.03;;;17.94;33.43
82379;BME280;72008;48.140;11.614;2023-10-08T00:21:56;96207.44;;;17.95;33.31
82379;BME280;72008;48.140;11.614;2023-10-08T00:22:56;96203.94;;;17.99;33.75
82379;BME280;72008;48.140;11.614;2023-10-08T00:23:57;96201.94;;;17.99;33.00
82379;BME280;72008;48.140;11.614;2023-10-08T00:24:57;96201.94;;;17.99;32.90
82379;BME280;72008;48.140;11.614;2023-10-08T00:25:57;96201.53;;;17.97;32.70
82379;BME280;72008;48.140;11.614;2023-10-08T00:26:58;96199.97;;;18.00;33.11
82379;BME280;72008;48.140;11.614;2023-10-08T00:27:58;96200.78;;;18.00;33.78
82379;BME280;72008;48.140;11.614;2023-10-08T00:29:09;96204.34;;;18.01;32.94
82379;BME280;72008;48.140;11.614;2023-10-08T00:30:09;96201.59;;;18.04;33.49
82379;BME280;72008;48.140;11.614;2023-10-08T00:31:10;96200.44;;;18.05;33.20
82379;BME280;72008;48.140;11.614;2023-10-08T00:32:10;96196.88;;;18.05;32.96
82379;BME280;72008;48.140;11.614;2023-10-08T00:33:11;96188.94;;;18.03;33.04
82379;BME280;72008;48.140;11.614;2023-10-08T00:34:12;96192.09;;;18.02;33.31
82379;BME280;72008;48.140;11.614;2023-10-08T00:35:12;96191.72;;;18.03;32.98
82379;BME280;72008;48.140;11.614;2023-10-08T00:36:13;96192.09;;;18.02;33.64
82379;BME280;72008;48.140;11.614;2023-10-08T00:37:13;96189.22;;;17.94;34.15
82379;BME280;72008;48.140;11.614;2023-10-08T00:38:13;96185.00;;;18.04;33.46
82379;BME280;72008;48.140;11.614;2023-10-08T00:39:15;96179.44;;;18.04;33.12
82379;BME280;72008;48.140;11.614;2023-10-08T00:40:15;96174.34;;;18.06;32.68
82379;BME280;72008;48.140;11.614;2023-10-08T00:41:16;96188.22;;;18.10;33.38
82379;BME280;72008;48.140;11.614;2023-10-08T00:42:17;96179.56;;;18.11;33.02
82379;BME280;72008;48.140;11.614;2023-10-08T00:43:34;96184.31;;;18.11;32.77
82379;BME280;72008;48.140;11.614;2023-10-08T00:44:35;96187.47;;;18.13;33.42
82379;BME280;72008;48.140;11.614;2023-10-08T00:45:36;96184.34;;;18.14;33.73
82379;BME280;72008;48.140;11.614;2023-10-08T00:46:37;96188.63;;;18.08;33.73
82379;BME280;72008;48.140;11.614;2023-10-08T00:47:38;96183.13;;;18.12;33.32
82379;BME280;72008;48.140;11.614;2023-10-08T00:48:39;96187.56;;;18.16;33.46
82379;BME280;72008;48.140;11.614;2023-10-08T00:49:39;96185.94;;;18.15;32.99
82379;BME280;72008;48.140;11.614;2023-10-08T00:50:40;96185.56;;;18.17;33.54
82379;BME280;72008;48.140;11.614;2023-10-08T00:51:41;96184.03;;;18.19;33.14
82379;BME280;72008;48.140;11.614;2023-10-08T00:52:41;96184.50;;;18.25;33.13
82379;BME280;72008;48.140;11.614;2023-10-08T00:53:42;96175.75;;;18.23;33.53
82379;BME280;72008;48.140;11.614;2023-10-08T00:54:43;96182.53;;;18.26;33.13
82379;BME280;72008;48.140;11.614;2023-10-08T00:55:43;96180.13;;;18.24;32.63
82379;BME280;72008;48.140;11.614;2023-10-08T00:56:46;96177.38;;;18.28;33.39
82379;BME280;72008;48.140;11.614;2023-10-08T00:57:47;96180.16;;;18.28;33.58
82379;BME280;72008;48.140;11.614;2023-10-08T00:58:47;96178.56;;;18.27;33.16
82379;BME280;72008;48.140;11.614;2023-10-08T00:59:48;96177.47;;;18.31;33.19
82379;BME280;72008;48.140;11.614;2023-10-08T01:00:51;96171.91;;;18.31;32.61
82379;BME280;72008;48.140;11.614;2023-10-08T01:01:52;96160.44;;;18.33;33.14
82379;BME280;72008;48.140;11.614;2023-10-08T01:02:53;96172.75;;;18.35;32.49
82379;BME280;72008;48.140;11.614;2023-10-08T01:03:53;96167.25;;;18.39;33.18
82379;BME280;72008;48.140;11.614;2023-10-08T01:04:55;96173.22;;;18.41;33.22
82379;BME280;72008;48.140;11.614;2023-10-08T01:05:56;96172.81;;;18.42;32.74
82379;BME280;72008;48.140;11.614;2023-10-08T01:06:57;96172.81;;;18.42;32.96
82379;BME280;72008;48.140;11.614;2023-10-08T01:07:58;96174.44;;;18.44;32.61
82379;BME280;72008;48.140;11.614;2023-10-08T01:08:58;96174.47;;;18.47;32.75
82379;BME280;72008;48.140;11.614;2023-10-08T01:09:59;96169.72;;;18.48;32.78
82379;BME280;72008;48.140;11.614;2023-10-08T01:11:19;96174.13;;;18.49;32.85
82379;BME280;72008;48.140;11.614;2023-10-08T01:12:23;96179.56;;;18.41;33.41
82379;BME280;72008;48.140;11.614;2023-10-08T01:13:23;96178.44;;;18.46;32.22
82379;BME280;72008;48.140;11.614;2023-10-08T01:14:24;96170.53;;;18.48;32.95
82379;BME280;72008;48.140;11.614;2023-10-08T01:15:24;96178.44;;;18.46;32.61
82379;BME280;72008;48.140;11.614;2023-10-08T01:16:25;96172.13;;;18.49;32.88
82379;BME280;72008;48.140;11.614;2023-10-08T01:17:25;96175.31;;;18.51;32.60
82379;BME280;72008;48.140;11.614;2023-10-08T01:18:26;96169.75;;;18.51;32.72
82379;BME280;72008;48.140;11.614;2023-10-08T01:19:26;96176.88;;;18.49;32.17
82379;BME280;72008;48.140;11.614;2023-10-08T01:20:30;96176.50;;;18.50;32.64
82379;BME280;72008;48.140;11.614;2023-10-08T01:21:30;96170.53;;;18.48;32.80
82379;BME280;72008;48.140;11.614;2023-10-08T01:22:31;96179.25;;;18.50;32.45
82379;BME280;72008;48.140;11.614;2023-10-08T01:23:31;96175.31;;;18.51;32.57
82379;BME280;72008;48.140;11.614;2023-10-08T01:24:32;96169.75;;;18.51;32.73
82379;BME280;72008;48.140;11.614;2023-10-08T01:25:32;96179.69;;;18.52;32.56
82379;BME280;72008;48.140;11.614;2023-10-08T01:26:35;96171.78;;;18.54;32.28
82379;BME280;72008;48.140;11.614;2023-10-08T01:27:36;96166.66;;;18.56;31.86
82379;BME280;72008;48.140;11.614;2023-10-08T01:28:37;96177.78;;;18.60;31.74
82379;BME280;72008;48.140;11.614;2023-10-08T01:29:39;96169.44;;;18.56;32.29
82379;BME280;72008;48.140;11.614;2023-10-08T01:30:39;96174.22;;;18.59;32.10
82379;BME280;72008;48.140;11.614;2023-10-08T01:31:39;96168.25;;;18.57;32.70
82379;BME280;72008;48.140;11.614;2023-10-08T01:32:40;96173.78;;;18.57;32.00
82379;BME280;72008;48.140;11.614;2023-10-08T01:33:40;96168.25;;;18.57;32.07
82379;BME280;72008;48.140;11.614;2023-10-08T01:34:41;96169.91;;;18.62;31.31
82379;BME280;72008;48.140;11.614;2023-10-08T01:35:42;96164.75;;;18.60;31.96
82379;BME280;72008;48.140;11.614;2023-10-08T01:36:42;96176.25;;;18.62;31.68
82379;BME280;72008;48.140;11.614;2023-10-08T01:37:43;96164.00;;;18.63;31.73
82379;BME280;72008;48.140;11.614;2023-10-08T01:38:43;96169.53;;;18.63;31.05
82379;BME280;72008;48.140;11.614;2023-10-08T01:39:47;96164.34;;;18.62;31.92
82379;BME280;72008;48.140;11.614;2023-10-08T01:40:48;96171.13;;;18.64;31.91
82379;BME280;72008;48.140;11.614;2023-10-08T01:41:48;96164.81;;;18.68;31.66
82379;BME280;72008;48.140;11.614;2023-10-08T01:42:52;96162.03;;;18.68;31.47
82379;BME280;72008;48.140;11.614;2023-10-08T01:43:52;96165.25;;;18.70;31.14
82379;BME280;72008;48.140;11.614;2023-10-08T01:44:53;96163.63;;;18.69;31.50
82379;BME280;72008;48.140;11.614;2023-10-08T01:45:53;96158.03;;;18.65;31.71
82379;BME280;72008;48.140;11.614;2023-10-08T01:46:54;96159.63;;;18.66;31.38
82379;BME280;72008;48.140;11.614;2023-10-08T01:47:54;96156.50;;;18.68;31.46
82379;BME280;72008;48.140;11.614;2023-10-08T01:48:54;96160.06;;;18.68;31.51
82379;BME280;72008;48.140;11.614;2023-10-08T01:49:55;96153.75;;;18.71;31.14
82379;BME280;72008;48.140;11.614;2023-10-08T01:50:56;96158.94;;;18.73;31.17
82379;BME280;72008;48.140;11.614;2023-10-08T01:51:57;96155.34;;;18.72;31.44
82379;BME280;72008;48.140;11.614;2023-10-08T01:52:57;96157.31;;;18.72;31.34
82379;BME280;72008;48.140;11.614;2023-10-08T01:53:58;96162.84;;;18.68;31.93
82379;BME280;72008;48.140;11.614;2023-10-08T01:54:58;96164.38;;;18.65;31.65
82379;BME280;72008;48.140;11.614;2023-10-08T01:55:59;96153.31;;;18.69;31.52
82379;BME280;72008;48.140;11.614;2023-10-08T01:56:59;96158.88;;;18.69;31.54
82379;BME280;72008;48.140;11.614;2023-10-08T01:57:59;96149.75;;;18.69;31.46
82379;BME280;72008;48.140;11.614;2023-10-08T01:59:00;96153.38;;;18.73;31.58
82379;BME280;72008;48.140;11.614;2023-10-08T02:00:00;96150.19;;;18.71;31.57
82379;BME280;72008;48.140;11.614;2023-10-08T02:01:01;96151.38;;;18.70;31.92
82379;BME280;72008;48.140;11.614;2023-10-08T02:02:01;96152.22;;;18.74;31.25
82379;BME280;72008;48.140;11.614;2023-10-08T02:03:01;96151.47;;;18.77;31.04
82379;BME280;72008;48.140;11.614;2023-10-08T02:04:02;96150.28;;;18.78;31.32
82379;BME280;72008;48.140;11.614;2023-10-08T02:05:02;96148.22;;;18.71;31.54
82379;BME280;72008;48.140;11.614;2023-10-08T02:06:03;96155.00;;;18.74;31.28
82379;BME280;72008;48.140;11.614;2023-10-08T02:07:04;96146.69;;;18.74;31.60
82379;BME280;72008;48.140;11.614;2023-10-08T02:08:04;96149.00;;;18.72;31.35
82379;BME280;72008;48.140;11.614;2023-10-08T02:09:05;96147.47;;;18.74;31.42
82379;BME280;72008;48.140;11.614;2023-10-08T02:10:06;96149.41;;;18.70;31.74
82379;BME280;72008;48.140;11.614;2023-10-08T02:11:07;96157.00;;;18.73;31.44
82379;BME280;72008;48.140;11.614;2023-10-08T02:12:07;96155.00;;;18.74;32.09
82379;BME280;72008;48.140;11.614;2023-10-08T02:13:09;96147.94;;;18.80;31.31
82379;BME280;72008;48.140;11.614;2023-10-08T02:14:10;96149.50;;;18.77;31.84
82379;BME280;72008;48.140;11.614;2023-10-08T02:15:10;96157.41;;;18.75;31.76
82379;BME280;72008;48.140;11.614;2023-10-08T02:16:11;96153.81;;;18.75;31.45
82379;BME280;72008;48.140;11.614;2023-10-08T02:17:11;96151.47;;;18.77;30.97
82379;BME280;72008;48.140;11.614;2023-10-08T02:18:11;96147.94;;;18.80;31.41
82379;BME280;72008;48.140;11.614;2023-10-08T02:19:13;96155.84;;;18.78;31.22
82379;BME280;72008;48.140;11.614;2023-10-08T02:20:13;96147.13;;;18.76;31.55
82379;BME280;72008;48.140;11.614;2023-10-08T02:21:14;96145.44;;;18.71;31.71
82379;BME280;72008;48.140;11.614;2023-10-08T02:22:14;96151.09;;;18.78;31.31
82379;BME280;72008;48.140;11.614;2023-10-08T02:23:14;96155.03;;;18.77;31.21
82379;BME280;72008;48.140;11.614;2023-10-08T02:24:15;96147.50;;;18.78;31.50
82379;BME280;72008;48.140;11.614;2023-10-08T02:25:16;96146.31;;;18.75;31.28
82379;BME280;72008;48.140;11.614;2023-10-08T02:26:16;96143.59;;;18.79;31.24
82379;BME280;72008;48.140;11.614;2023-10-08T02:27:17;96144.75;;;18.78;31.43
82379;BME280;72008;48.140;11.614;2023-10-08T02:28:17;96148.34;;;18.78;31.38
82379;BME280;72008;48.140;11.614;2023-10-08T02:29:17;96154.25;;;18.77;31.29
82379;BME280;72008;48.140;11.614;2023-10-08T02:30:18;96149.88;;;18.76;31.38
82379;BME280;72008;48.140;11.614;2023-10-08T02:31:18;96145.94;;;18.77;30.99
82379;BME280;72008;48.140;11.614;2023-10-08T02:32:19;96147.50;;;18.78;31.57
82379;BME280;72008;48.140;11.614;2023-10-08T02:33:19;96140.41;;;18.80;31.53
82379;BME280;72008;48.140;11.614;2023-10-08T02:34:19;96140.81;;;18.79;31.43
82379;BME280;72008;48.140;11.614;2023-10-08T02:35:20;96142.78;;;18.78;31.53
82379;BME280;72008;48.140;11.614;2023-10-08T02:36:20;96144.81;;;18.81;31.26
82379;BME280;72008;48.140;11.614;2023-10-08T02:37:21;96136.41;;;18.78;31.93
82379;BME280;72008;48.140;11.614;2023-10-08T02:38:21;96145.50;;;18.75;31.48
82379;BME280;72008;48.140;11.614;2023-10-08T02:39:21;96142.72;;;18.75;31.63
82379;BME280;72008;48.140;11.614;2023-10-08T02:40:22;96147.13;;;18.76;31.79
82379;BME280;72008;48.140;11.614;2023-10-08T02:41:22;96138.00;;;18.75;31.60
82379;BME280;72008;48.140;11.614;2023-10-08T02:42:23;96137.59;;;18.77;30.96
82379;BME280;72008;48.140;11.614;2023-10-08T02:43:23;96138.00;;;18.75;31.44
82379;BME280;72008;48.140;11.614;2023-10-08T02:44:24;96145.13;;;18.76;32.08
82379;BME280;72008;48.140;11.614;2023-10-08T02:45:25;96141.56;;;18.76;31.37
82379;BME280;72008;48.140;11.614;2023-10-08T02:46:26;96134.41;;;18.75;31.98
82379;BME280;72008;48.140;11.614;2023-10-08T02:47:26;96138.38;;;18.74;31.51
82379;BME280;72008;48.140;11.614;2023-10-08T02:48:27;96133.66;;;18.78;31.78
82379;BME280;72008;48.140;11.614;2023-10-08T02:49:27;96128.09;;;18.78;31.95
82379;BME280;72008;48.140;11.614;2023-10-08T02:50:28;96130.47;;;18.76;31.68
82379;BME280;72008;48.140;11.614;2023-10-08T02:51:28;96136.03;;;18.76;31.71
82379;BME280;72008;48.140;11.614;2023-10-08T02:52:28;96132.47;;;18.75;31.98
82379;BME280;72008;48.140;11.614;2023-10-08T02:53:29;96118.97;;;18.74;32.00
82379;BME280;72008;48.140;11.614;2023-10-08T02:54:29;96120.13;;;18.73;32.05
82379;BME280;72008;48.140;11.614;2023-10-08T02:55:30;96132.03;;;18.73;31.84
82379;BME280;72008;48.140;11.614;2023-10-08T02:56:30;96125.66;;;18.73;32.33
82379;BME280;72008;48.140;11.614;2023-10-08T02:57:30;96131.63;;;18.75;32.19
82379;BME280;72008;48.140;11.614;2023-10-08T02:58:31;96124.03;;;18.72;32.11
82379;BME280;72008;48.140;11.614;2023-10-08T02:59:32;96126.78;;;18.68;32.46
82379;BME280;72008;48.140;11.614;2023-10-08T03:00:33;96120.88;;;18.70;32.20
82379;BME280;72008;48.140;11.614;2023-10-08T03:01:33;96124.81;;;18.69;32.22
82379;BME280;72008;48.140;11.614;2023-10-08T03:02:35;96122.44;;;18.67;32.75
82379;BME280;72008;48.140;11.614;2023-10-08T03:03:35;96119.69;;;18.71;32.18
82379;BME280;72008;48.140;11.614;2023-10-08T03:04:36;96113.75;;;18.72;32.21
82379;BME280;72008;48.140;11.614;2023-10-08T03:05:37;96120.44;;;18.68;32.57
82379;BME280;72008;48.140;11.614;2023-10-08T03:06:37;96124.00;;;18.68;32.55
82379;BME280;72008;48.140;11.614;2023-10-08T03:07:37;96126.75;;;18.64;32.75
82379;BME280;72008;48.140;11.614;2023-10-08T03:08:38;96116.88;;;18.67;32.47
82379;BME280;72008;48.140;11.614;2023-10-08T03:09:38;96118.47;;;18.68;32.34
82379;BME280;72008;48.140;11.614;2023-10-08T03:10:39;96116.03;;;18.63;32.80
82379;BME280;72008;48.140;11.614;2023-10-08T03:11:40;96120.03;;;18.65;32.58
82379;BME280;72008;48.140;11.614;2023-10-08T03:12:40;96120.06;;;18.69;32.59
82379;BME280;72008;48.140;11.614;2023-10-08T03:13:40;96123.25;;;18.71;32.61
82379;BME280;72008;48.140;11.614;2023-10-08T03:14:41;96116.50;;;18.69;32.16
82379;BME280;72008;48.140;11.614;2023-10-08T03:15:41;96124.00;;;18.68;32.74
82379;BME280;72008;48.140;11.614;2023-10-08T03:16:42;96116.09;;;18.67;32.74
82379;BME280;72008;48.140;11.614;2023-10-08T03:17:43;96120.81;;;18.66;32.60
82379;BME280;72008;48.140;11.614;2023-10-08T03:18:43;96116.09;;;18.67;32.54
82379;BME280;72008;48.140;11.614;2023-10-08T03:19:43;96123.22;;;18.68;32.94
82379;BME280;72008;48.140;11.614;2023-10-08T03:20:44;96119.22;;;18.65;33.00
82379;BME280;72008;48.140;11.614;2023-10-08T03:21:47;96112.91;;;18.68;32.85
82379;BME280;72008;48.140;11.614;2023-10-08T03:22:48;96117.28;;;18.69;32.62
82379;BME280;72008;48.140;11.614;2023-10-08T03:23:49;96116.13;;;18.70;32.66
82379;BME280;72008;48.140;11.614;2023-10-08T03:24:49;96113.72;;;18.69;32.84
82379;BME280;72008;48.140;11.614;2023-10-08T03:25:51;96113.69;;;18.65;32.89
82379;BME280;72008;48.140;11.614;2023-10-08T03:26:52;96112.91;;;18.64;33.26
82379;BME280;72008;48.140;11.614;2023-10-08T03:27:52;96113.25;;;18.63;33.65
82379;BME280;72008;48.140;11.614;2023-10-08T03:28:52;96109.72;;;18.66;32.69
82379;BME280;72008;48.140;11.614;2023-10-08T03:29:53;96114.50;;;18.69;32.89
82379;BME280;72008;48.140;11.614;2023-10-08T03:30:55;96112.13;;;18.68;32.69
82379;BME280;72008;48.140;11.614;2023-10-08T03:31:55;96110.19;;;18.72;32.27
82379;BME280;72008;48.140;11.614;2023-10-08T03:32:56;96112.56;;;18.70;33.45
82379;BME280;72008;48.140;11.614;2023-10-08T03:33:56;96111.69;;;18.65;32.49
82379;BME280;72008;48.140;11.614;2023-10-08T03:34:56;96116.09;;;18.67;32.88
82379;BME280;72008;48.140;11.614;2023-10-08T03:35:57;96104.59;;;18.68;32.59
82379;BME280;72008;48.140;11.614;2023-10-08T03:36:57;96116.50;;;18.69;32.92
82379;BME280;72008;48.140;11.614;2023-10-08T03:37:57;96112.91;;;18.64;33.20
82379;BME280;72008;48.140;11.614;2023-10-08T03:38:58;96115.25;;;18.62;32.60
82379;BME280;72008;48.140;11.614;2023-10-08T03:39:58;96119.22;;;18.65;32.89
82379;BME280;72008;48.140;11.614;2023-10-08T03:40:59;96118.81;;;18.63;33.17
82379;BME280;72008;48.140;11.614;2023-10-08T03:41:59;96116.88;;;18.67;32.85
82379;BME280;72008;48.140;11.614;2023-10-08T03:42:59;96111.69;;;18.65;33.01
82379;BME280;72008;48.140;11.614;2023-10-08T03:44:00;96115.69;;;18.68;32.89
82379;BME280;72008;48.140;11.614;2023-10-08T03:45:00;96113.34;;;18.70;32.34
82379;BME280;72008;48.140;11.614;2023-10-08T03:46:01;96108.59;;;18.71;32.99
82379;BME280;72008;48.140;11.614;2023-10-08T03:47:01;96110.16;;;18.68;33.39
82379;BME280;72008;48.140;11.614;2023-10-08T03:48:02;96114.09;;;18.67;32.73
82379;BME280;72008;48.140;11.614;2023-10-08T03:49:02;96120.44;;;18.68;32.92
82379;BME280;72008;48.140;11.614;2023-10-08T03:50:03;96112.16;;;18.71;32.69
82379;BME280;72008;48.140;11.614;2023-10-08T03:51:03;96113.41;;;18.74;32.83
82379;BME280;72008;48.140;11.614;2023-10-08T03:52:04;96107.41;;;18.72;32.45
82379;BME280;72008;48.140;11.614;2023-10-08T03:53:04;96107.41;;;18.72;32.32
82379;BME280;72008;48.140;11.614;2023-10-08T03:54:08;96106.25;;;18.73;32.60
82379;BME280;72008;48.140;11.614;2023-10-08T03:55:08;96105.09;;;18.74;32.72
82379;BME280;72008;48.140;11.614;2023-10-08T03:56:08;96108.66;;;18.74;32.77
82379;BME280;72008;48.140;11.614;2023-10-08T03:57:09;96114.13;;;18.71;32.90
82379;BME280;72008;48.140;11.614;2023-10-08T03:58:09;96103.47;;;18.73;32.57
82379;BME280;72008;48.140;11.614;2023-10-08T03:59:10;96106.63;;;18.71;32.81
82379;BME280;72008;48.140;11.614;2023-10-08T04:00:11;96110.19;;;18.72;32.72
82379;BME280;72008;48.140;11.614;2023-10-08T04:01:12;96106.63;;;18.71;32.86
82379;BME280;72008;48.140;11.614;2023-10-08T04:02:12;96109.44;;;18.75;32.88
82379;BME280;72008;48.140;11.614;2023-10-08T04:03:13;96108.16;;;18.69;33.04
82379;BME280;72008;48.140;11.614;2023-10-08T04:04:13;96108.97;;;18.69;32.83
82379;BME280;72008;48.140;11.614;2023-10-08T04:05:13;96104.63;;;18.72;32.79
82379;BME280;72008;48.140;11.614;2023-10-08T04:06:14;96114.94;;;18.71;33.13
82379;BME280;72008;48.140;11.614;2023-10-08T04:07:19;96114.94;;;18.71;32.83
82379;BME280;72008;48.140;11.614;2023-10-08T04:08:19;96110.63;;;18.74;32.52
82379;BME280;72008;48.140;11.614;2023-10-08T04:09:20;96106.63;;;18.71;32.98
82379;BME280;72008;48.140;11.614;2023-10-08T04:10:20;96107.88;;;18.74;32.46
82379;BME280;72008;48.140;11.614;2023-10-08T04:11:21;96108.28;;;18.76;32.76
82379;BME280;72008;48.140;11.614;2023-10-08T04:12:21;96116.59;;;18.76;32.66
82379;BME280;72008;48.140;11.614;2023-10-08T04:13:21;96108.66;;;18.74;32.82
82379;BME280;72008;48.140;11.614;2023-10-08T04:14:24;96115.00;;;18.75;32.72
82379;BME280;72008;48.140;11.614;2023-10-08T04:15:24;96114.56;;;18.73;32.94
82379;BME280;72008;48.140;11.614;2023-10-08T04:16:25;96117.72;;;18.71;33.54
82379;BME280;72008;48.140;11.614;2023-10-08T04:17:25;96117.34;;;18.73;32.76
82379;BME280;72008;48.140;11.614;2023-10-08T04:18:25;96111.06;;;18.76;32.90
82379;BME280;72008;48.140;11.614;2023-10-08T04:19:26;96109.44;;;18.75;33.18
82379;BME280;72008;48.140;11.614;2023-10-08T04:20:26;96112.66;;;18.77;32.64
82379;BME280;72008;48.140;11.614;2023-10-08T04:21:27;96115.81;;;18.75;32.71
82379;BME280;72008;48.140;11.614;2023-10-08T04:22:27;96109.44;;;18.75;32.97
82379;BME280;72008;48.140;11.614;2023-10-08T04:23:27;96112.22;;;18.75;32.93
82379;BME280;72008;48.140;11.614;2023-10-08T04:24:28;96116.59;;;18.76;32.65
82379;BME280;72008;48.140;11.614;2023-10-08T04:25:29;96109.84;;;18.73;32.98
82379;BME280;72008;48.140;11.614;2023-10-08T04:26:30;96120.53;;;18.75;32.90
82379;BME280;72008;48.140;11.614;2023-10-08T04:27:30;96106.69;;;18.75;32.66
82379;BME280;72008;48.140;11.614;2023-10-08T04:28:31;96121.38;;;18.75;32.82
82379;BME280;72008;48.140;11.614;2023-10-08T04:29:31;96111.44;;;18.74;32.85
82379;BME280;72008;48.140;11.614;2023-10-08T04:30:32;96113.84;;;18.76;32.75
82379;BME280;72008;48.140;11.614;2023-10-08T04:31:33;96125.72;;;18.76;32.45
82379;BME280;72008;48.140;11.614;2023-10-08T04:32:34;96118.59;;;18.75;33.22
82379;BME280;72008;48.140;11.614;2023-10-08T04:33:34;96115.41;;;18.77;32.62
82379;BME280;72008;48.140;11.614;2023-10-08T04:34:35;96117.81;;;18.78;32.64
82379;BME280;72008;48.140;11.614;2023-10-08T04:35:36;96120.97;;;18.77;32.62
82379;BME280;72008;48.140;11.614;2023-10-08T04:36:37;96109.44;;;18.75;33.34
82379;BME280;72008;48.140;11.614;2023-10-08T04:37:37;96111.78;;;18.73;33.23
82379;BME280;72008;48.140;11.614;2023-10-08T04:38:38;96112.22;;;18.75;33.43
82379;BME280;72008;48.140;11.614;2023-10-08T04:39:39;96108.28;;;18.76;32.81
82379;BME280;72008;48.140;11.614;2023-10-08T04:40:40;96104.72;;;18.75;32.40
82379;BME280;72008;48.140;11.614;2023-10-08T04:41:40;96104.28;;;18.73;33.18
82379;BME280;72008;48.140;11.614;2023-10-08T04:42:41;96107.81;;;18.70;33.07
82379;BME280;72008;48.140;11.614;2023-10-08T04:43:42;96104.63;;;18.72;33.13
82379;BME280;72008;48.140;11.614;2023-10-08T04:44:42;96105.81;;;18.71;33.33
82379;BME280;72008;48.140;11.614;2023-10-08T04:45:43;96105.09;;;18.74;32.83
82379;BME280;72008;48.140;11.614;2023-10-08T04:46:44;96104.31;;;18.77;32.33
82379;BME280;72008;48.140;11.614;2023-10-08T04:47:44;96099.56;;;18.77;32.86
82379;BME280;72008;48.140;11.614;2023-10-08T04:48:46;96102.31;;;18.74;33.37
82379;BME280;72008;48.140;11.614;2023-10-08T04:49:46;96104.28;;;18.73;33.33
82379;BME280;72008;48.140;11.614;2023-10-08T04:50:50;96099.88;;;18.72;32.46
82379;BME280;72008;48.140;11.614;2023-10-08T04:51:50;96113.34;;;18.70;33.03
82379;BME280;72008;48.140;11.614;2023-10-08T04:52:51;96111.72;;;18.69;32.92
82379;BME280;72008;48.140;11.614;2023-10-08T04:53:51;96112.22;;;18.75;33.24
82379;BME280;72008;48.140;11.614;2023-10-08T04:54:52;96110.28;;;18.75;32.60
82379;BME280;72008;48.140;11.614;2023-10-08T04:55:52;96102.66;;;18.72;32.87
82379;BME280;72008;48.140;11.614;2023-10-08T04:56:52;96111.78;;;18.73;32.77
82379;BME280;72008;48.140;11.614;2023-10-08T04:57:53;96108.19;;;18.72;32.56
82379;BME280;72008;48.140;11.614;2023-10-08T04:58:53;96111.44;;;18.74;32.62
82379;BME280;72008;48.140;11.614;2023-10-08T04:59:53;96118.50;;;18.72;32.67
82379;BME280;72008;48.140;11.614;2023-10-08T05:00:54;96116.09;;;18.67;32.75
82379;BME280;72008;48.140;11.614;2023-10-08T05:01:54;96119.69;;;18.71;32.73
82379;BME280;72008;48.140;11.614;2023-10-08T05:02:55;96112.16;;;18.71;32.67
82379;BME280;72008;48.140;11.614;2023-10-08T05:03:56;96119.75;;;18.74;32.37
82379;BME280;72008;48.140;11.614;2023-10-08T05:04:56;96120.19;;;18.76;32.26
82379;BME280;72008;48.140;11.614;2023-10-08T05:05:57;96115.81;;;18.75;32.37
82379;BME280;72008;48.140;11.614;2023-10-08T05:06:58;96123.31;;;18.75;32.42
82379;BME280;72008;48.140;11.614;2023-10-08T05:07:58;96120.94;;;18.73;33.04
82379;BME280;72008;48.140;11.614;2023-10-08T05:08:59;96114.56;;;18.73;32.61
82379;BME280;72008;48.140;11.614;2023-10-08T05:09:59;96120.03;;;18.65;33.01
82379;BME280;72008;48.140;11.614;2023-10-08T05:10:59;96114.91;;;18.68;33.08
82379;BME280;72008;48.140;11.614;2023-10-08T05:12:00;96114.13;;;18.71;32.52
82379;BME280;72008;48.140;11.614;2023-10-08T05:13:00;96121.72;;;18.74;32.43
82379;BME280;72008;48.140;11.614;2023-10-08T05:14:00;96113.84;;;18.76;32.62
82379;BME280;72008;48.140;11.614;2023-10-08T05:15:01;96122.56;;;18.78;32.33
82379;BME280;72008;48.140;11.614;2023-10-08T05:16:01;96126.81;;;18.72;33.09
82379;BME280;72008;48.140;11.614;2023-10-08T05:17:07;96121.72;;;18.74;32.67
82379;BME280;72008;48.140;11.614;2023-10-08T05:18:08;96123.72;;;18.73;32.92